KBFI/BFI METAR and TAF weather

Enter ICAO airport designator
Station Type Date Time Source
KBFI METAR 2022/12/08 12:53 UTC NOAA

KBFI 081253Z 12003KT 7SM -RA OVC029 04/03 A2994 RMK AO2 SLP137 P0002 T00440033


Station Type Date Time Source
KBFI Decoded METAR 2022/12/08 12:53 UTC NOAA

SEATTLE BOEING FIELD, WA, United States (KBFI) 47-33N 122-19W 4M
Dec 08, 2022 - 07:53 AM EST / 2022.12.08 1253 UTC
Wind: from the ESE (120 degrees) at 3 MPH (3 KT):0
Visibility: 7 mile(s):0
Sky conditions: overcast
Weather: light rain
Precipitation last hour: 0.02 inches
Temperature: 39.9 F (4.4 C)
Dew Point: 37.9 F (3.3 C)
Relative Humidity: 92%
Pressure (altimeter): 29.94 in. Hg (1013 hPa)
ob: KBFI 081253Z 12003KT 7SM -RA OVC029 04/03 A2994 RMK AO2 SLP137 P0002 T00440033
cycle: 13

Station Type Date Time Source
KBFI TAF 2022/12/08 12:39 UTC NOAA

TAF KBFI 081137Z 0812/0912 14010KT P6SM -RA OVC030
FM081600 16010KT 6SM -SHRA BR OVC022
FM082100 18008KT P6SM -SHRA BKN025 OVC035
FM090200 16006KT P6SM -SHRA BKN020 OVC030
FM091000 15004KT P6SM VCSH BKN015 OVC022

Example: see airport list